Time;durP1;ratioP1;P1;durP2;ratioP2;P2;SDS_P1;SDS_P2;PMS_P1;PMS_P2;Temp;Humidity;BMP_temperature;BMP_pressure;BME280_temperature;BME280_humidity;BME280_pressure;Samples;Min_cycle;Max_cycle;Signal;HPM_P1;HPM_P2
2023/07/20 00:00:53;;;;;;;2.78;0.93;;;;;;;-146.25;100.00;52118.81;2089248;28;35168;-85
2023/07/20 00:01:55;;;;;;;2.00;0.98;;;;;;;-146.25;100.00;52163.41;2090239;28;35260;-84
2023/07/20 00:03:16;;;;;;;1.52;1.13;;;;;;;-146.25;100.00;52153.28;2090848;28;21092;-84
2023/07/20 00:04:18;;;;;;;1.15;0.88;;;;;;;-146.25;100.00;52169.50;2087815;28;36077;-83
2023/07/20 00:05:24;;;;;;;1.00;0.77;;;;;;;-146.25;100.00;52135.03;2089155;28;27680;-85
2023/07/20 00:06:28;;;;;;;2.10;1.20;;;;;;;-146.25;100.00;52185.72;2089034;28;36727;-86
2023/07/20 00:07:30;;;;;;;1.75;1.10;;;;;;;-146.25;100.00;52183.69;2088790;28;33131;-84
2023/07/20 00:08:32;;;;;;;1.00;0.90;;;;;;;-146.25;100.00;52173.56;2089081;28;26673;-86
2023/07/20 00:09:34;;;;;;;2.03;1.02;;;;;;;-146.25;100.00;52153.28;2088756;28;24015;-84
2023/07/20 00:10:36;;;;;;;1.23;1.08;;;;;;;-146.25;100.00;52185.72;2085992;28;30030;-85
2023/07/20 00:11:38;;;;;;;1.60;0.90;;;;;;;-146.25;100.00;52161.38;2079307;28;35365;-84
2023/07/20 00:12:40;;;;;;;1.85;1.08;;;;;;;-146.25;100.00;52128.94;2072164;28;38389;-83
2023/07/20 00:13:42;;;;;;;2.35;1.00;;;;;;;-146.25;100.00;52169.50;2072618;28;20871;-84
2023/07/20 00:14:43;;;;;;;2.10;1.17;;;;;;;-146.25;100.00;52179.63;2079778;28;37022;-83
2023/07/20 00:15:45;;;;;;;2.20;1.02;;;;;;;-146.25;100.00;52157.34;2082468;28;20393;-82
2023/07/20 00:16:55;;;;;;;1.60;1.50;;;;;;;-146.25;100.00;52153.28;2088655;28;20159;-83
2023/07/20 00:17:57;;;;;;;2.42;1.35;;;;;;;-146.25;100.00;52169.50;2085116;28;30668;-82
2023/07/20 00:18:59;;;;;;;1.25;0.70;;;;;;;-146.25;100.00;52171.53;2088085;28;33365;-83
2023/07/20 00:20:01;;;;;;;1.60;0.80;;;;;;;-146.25;100.00;52161.38;2087928;28;34247;-83
2023/07/20 00:21:03;;;;;;;2.67;0.93;;;;;;;-146.25;100.00;52169.50;2088065;28;35474;-85
2023/07/20 00:22:06;;;;;;;1.23;0.93;;;;;;;-146.25;100.00;52143.13;2088606;28;20081;-86
2023/07/20 00:23:07;;;;;;;2.53;1.00;;;;;;;-146.25;100.00;52128.94;2088029;28;35267;-84
2023/07/20 00:24:09;;;;;;;1.30;0.90;;;;;;;-146.25;100.00;52155.31;2089142;28;20080;-84
2023/07/20 00:25:11;;;;;;;3.47;0.95;;;;;;;-146.25;100.00;52126.91;2081745;28;20049;-83
2023/07/20 00:26:13;;;;;;;1.20;0.90;;;;;;;-146.25;100.00;52133.00;2079746;28;36358;-81
2023/07/20 00:27:15;;;;;;;1.65;1.00;;;;;;;-146.25;100.00;52183.69;2079829;28;30832;-83
2023/07/20 00:28:17;;;;;;;1.70;0.90;;;;;;;-146.25;100.00;52169.50;2072153;28;23009;-83
2023/07/20 00:29:18;;;;;;;2.17;0.80;;;;;;;-146.25;100.00;52133.00;2072728;28;31001;-82
2023/07/20 00:30:21;;;;;;;1.63;1.00;;;;;;;-146.25;100.00;52159.34;2080633;28;20080;-84
2023/07/20 00:31:23;;;;;;;1.88;0.90;;;;;;;-146.25;100.00;52159.34;2088578;28;20913;-83
2023/07/20 00:32:25;;;;;;;1.15;1.05;;;;;;;-146.25;100.00;52155.31;2078338;28;30178;-83
2023/07/20 00:33:26;;;;;;;1.55;1.23;;;;;;;-146.25;100.00;52175.56;2071943;28;22556;-83
2023/07/20 00:34:28;;;;;;;1.20;0.80;;;;;;;-146.25;100.00;52157.34;2079771;28;20179;-81
2023/07/20 00:35:30;;;;;;;1.20;0.90;;;;;;;-146.25;100.00;52130.97;2080499;28;29564;-84
2023/07/20 00:36:32;;;;;;;1.83;1.40;;;;;;;-146.25;100.00;52157.34;2080545;28;20151;-80
2023/07/20 00:37:37;;;;;;;2.08;1.20;;;;;;;-146.25;100.00;52133.00;2080297;28;20998;-83
2023/07/20 00:38:40;;;;;;;1.33;1.10;;;;;;;-146.25;100.00;52124.91;2080099;28;20719;-83
2023/07/20 00:39:43;;;;;;;1.30;1.10;;;;;;;-146.25;100.00;52100.56;2080308;28;20041;-83
2023/07/20 00:40:49;;;;;;;1.80;1.38;;;;;;;-146.25;100.00;52137.06;2080081;28;24576;-82
2023/07/20 00:41:52;;;;;;;1.88;1.20;;;;;;;-146.25;100.00;52145.16;2088020;28;20817;-82
2023/07/20 00:42:54;;;;;;;2.28;1.25;;;;;;;-146.25;100.00;52175.56;2088038;28;24219;-81
2023/07/20 00:43:58;;;;;;;1.80;1.58;;;;;;;-146.25;100.00;52135.03;2080268;28;20073;-81
2023/07/20 00:45:00;;;;;;;2.80;1.52;;;;;;;-146.25;100.00;52159.34;2080291;28;20146;-80
2023/07/20 00:46:03;;;;;;;1.85;1.35;;;;;;;-146.25;100.00;52133.00;2080068;28;20046;-81
2023/07/20 00:47:06;;;;;;;2.83;1.80;;;;;;;-146.25;100.00;52143.13;2079906;28;20037;-80
2023/07/20 00:48:08;;;;;;;2.65;1.30;;;;;;;-146.25;100.00;52124.91;2090280;28;33238;-80
2023/07/20 00:49:10;;;;;;;1.48;1.38;;;;;;;-146.25;100.00;52183.69;2079259;28;20041;-80
2023/07/20 00:50:12;;;;;;;2.65;1.63;;;;;;;-146.25;100.00;52133.00;2080441;28;20041;-80
2023/07/20 00:51:15;;;;;;;3.00;1.80;;;;;;;-146.25;100.00;52135.03;2071607;28;20420;-81
2023/07/20 00:52:20;;;;;;;2.75;1.80;;;;;;;-146.25;100.00;52135.03;2071989;28;29032;-81
2023/07/20 00:53:25;;;;;;;3.22;2.17;;;;;;;-146.25;100.00;52128.94;2063372;28;20148;-80
2023/07/20 00:54:28;;;;;;;2.45;1.70;;;;;;;-146.25;100.00;52133.00;2067326;28;20926;-81
2023/07/20 00:55:33;;;;;;;2.50;2.30;;;;;;;-146.25;100.00;52163.41;2087649;28;29146;-81
2023/07/20 00:56:36;;;;;;;2.28;2.08;;;;;;;-146.25;100.00;52116.78;2079200;28;25074;-80
2023/07/20 00:57:38;;;;;;;1.63;1.50;;;;;;;-146.25;100.00;52139.09;2080839;28;21029;-80
2023/07/20 00:58:41;;;;;;;1.95;1.75;;;;;;;-146.25;100.00;52139.09;2080916;28;20049;-80
2023/07/20 00:59:43;;;;;;;2.35;1.98;;;;;;;-146.25;100.00;52169.50;2088114;28;24063;-80
2023/07/20 01:00:47;;;;;;;2.85;2.17;;;;;;;-146.25;100.00;52133.00;2087947;28;20181;-80
2023/07/20 01:01:49;;;;;;;2.28;1.92;;;;;;;-146.25;100.00;52128.94;2087982;28;26701;-79
2023/07/20 01:02:51;;;;;;;2.78;2.35;;;;;;;-146.25;100.00;52135.03;2070448;28;26409;-80
2023/07/20 01:03:53;;;;;;;2.10;1.90;;;;;;;-146.25;100.00;52159.34;2072428;28;20092;-80
2023/07/20 01:04:55;;;;;;;3.17;2.50;;;;;;;-146.25;100.00;52141.13;2080099;28;23143;-81
2023/07/20 01:06:57;;;;;;;2.72;2.35;;;;;;;-146.25;100.00;52163.41;2088145;28;20057;-80
2023/07/20 01:08:15;;;;;;;2.72;2.47;;;;;;;-146.25;100.00;52171.53;2088090;28;20135;-80
2023/07/20 01:09:48;;;;;;;2.97;2.40;;;;;;;-146.25;100.00;52141.13;2088350;28;20050;-80
2023/07/20 01:10:59;;;;;;;3.08;2.78;;;;;;;-146.25;100.00;52143.13;2094529;28;32322;-80
2023/07/20 01:12:25;;;;;;;3.30;2.65;;;;;;;-146.25;100.00;52130.97;2080260;28;20045;-80
2023/07/20 01:13:27;;;;;;;3.33;2.40;;;;;;;-146.25;100.00;52145.16;2084803;28;20079;-81
2023/07/20 01:14:29;;;;;;;2.50;2.30;;;;;;;-146.25;100.00;52139.09;2080522;28;20046;-80
2023/07/20 01:15:33;;;;;;;3.30;2.55;;;;;;;-146.25;100.00;52120.84;2089341;28;23396;-80
2023/07/20 01:16:37;;;;;;;3.05;2.40;;;;;;;-146.25;100.00;52153.28;2080758;28;20050;-80
2023/07/20 01:17:40;;;;;;;2.53;2.33;;;;;;;-146.25;100.00;52120.84;2081181;28;24023;-79
2023/07/20 01:18:42;;;;;;;2.60;2.40;;;;;;;-146.25;100.00;52139.09;2082334;28;20050;-80
2023/07/20 01:19:46;;;;;;;2.70;2.40;;;;;;;-146.25;100.00;52137.06;2079601;28;25007;-81
2023/07/20 01:20:48;;;;;;;3.17;2.20;;;;;;;-146.25;100.00;52124.91;2082083;28;24071;-80
2023/07/20 01:22:36;;;;;;;3.13;2.13;;;;;;;-146.25;100.00;52157.34;2087900;28;21193;-79
2023/07/20 01:24:20;;;;;;;2.38;1.90;;;;;;;-146.25;100.00;52139.09;2079511;28;29704;-80
2023/07/20 01:25:43;;;;;;;4.45;1.67;;;;;;;-146.25;100.00;52147.19;2068891;28;20080;-80
2023/07/20 01:27:18;;;;;;;1.48;1.25;;;;;;;-146.25;100.00;52128.94;2076706;28;33293;-82
2023/07/20 01:28:49;;;;;;;1.40;1.20;;;;;;;-146.25;100.00;52137.06;2080455;28;23893;-80
2023/07/20 01:29:55;;;;;;;1.60;1.20;;;;;;;-146.25;100.00;52126.91;2106467;22;20128;-73
2023/07/20 01:31:23;;;;;;;2.05;0.98;;;;;;;-146.25;100.00;52124.91;2101911;28;35996;-73
2023/07/20 01:32:26;;;;;;;1.48;1.17;;;;;;;-146.25;100.00;52169.50;2086624;28;20120;-72
2023/07/20 01:33:33;;;;;;;2.30;1.30;;;;;;;-146.25;100.00;52141.13;2085132;28;24987;-73
2023/07/20 01:34:36;;;;;;;3.20;0.98;;;;;;;-146.25;100.00;52133.00;2085199;28;26756;-73
2023/07/20 01:35:39;;;;;;;1.48;1.08;;;;;;;-146.25;100.00;52122.88;2087478;28;24956;-73
2023/07/20 01:36:42;;;;;;;2.28;1.50;;;;;;;-146.25;100.00;52149.22;2087686;28;29335;-72
2023/07/20 01:37:47;;;;;;;2.55;1.50;;;;;;;-146.25;100.00;52149.22;2071042;28;20053;-72
2023/07/20 01:38:49;;;;;;;2.65;1.50;;;;;;;-146.25;100.00;52165.44;2072459;28;23438;-73
2023/07/20 01:39:55;;;;;;;2.05;1.70;;;;;;;-146.25;100.00;52149.22;2079213;28;29772;-72
2023/07/20 01:40:57;;;;;;;1.98;1.83;;;;;;;-146.25;100.00;52149.22;2071917;28;20923;-72
2023/07/20 01:42:00;;;;;;;2.25;2.05;;;;;;;-146.25;100.00;52114.75;2079086;28;27928;-72
2023/07/20 01:43:03;;;;;;;3.13;2.50;;;;;;;-146.25;100.00;52133.00;2079642;28;20049;-72
2023/07/20 01:44:05;;;;;;;2.58;2.20;;;;;;;-146.25;100.00;52139.09;2078923;28;32584;-73
2023/07/20 01:45:07;;;;;;;2.47;2.28;;;;;;;-146.25;100.00;52159.34;2080381;28;20026;-72
2023/07/20 01:46:09;;;;;;;2.67;2.47;;;;;;;-146.25;100.00;52141.13;2079258;28;27973;-72
2023/07/20 01:47:11;;;;;;;4.47;2.70;;;;;;;-146.25;100.00;52153.28;2079493;28;24022;-72
2023/07/20 01:48:16;;;;;;;2.70;2.47;;;;;;;-146.25;100.00;52116.78;2071375;28;20054;-72
2023/07/20 01:49:17;;;;;;;2.58;2.13;;;;;;;-146.25;100.00;52173.56;2082149;28;30404;-73
2023/07/20 01:50:19;;;;;;;3.42;2.00;;;;;;;-146.25;100.00;52167.47;2095182;28;31691;-72
2023/07/20 01:51:21;;;;;;;2.70;2.08;;;;;;;-146.25;100.00;52128.94;2079108;28;26186;-72
2023/07/20 01:52:23;;;;;;;4.03;2.50;;;;;;;-146.25;100.00;52114.75;2071202;28;20958;-73
2023/07/20 01:53:25;;;;;;;2.75;2.50;;;;;;;-146.25;100.00;52147.19;2079795;28;20104;-73
2023/07/20 01:54:30;;;;;;;2.95;2.60;;;;;;;-146.25;100.00;52153.28;2079791;28;20822;-73
2023/07/20 01:55:32;;;;;;;2.63;2.42;;;;;;;-146.25;100.00;52157.34;2079523;28;25922;-73
2023/07/20 01:56:33;;;;;;;4.15;2.10;;;;;;;-146.25;100.00;52145.16;2087157;28;20922;-73
2023/07/20 01:57:36;;;;;;;2.55;2.28;;;;;;;-146.25;100.00;52159.34;2087870;28;21179;-73
2023/07/20 01:58:38;;;;;;;2.80;2.60;;;;;;;-146.25;100.00;52120.84;2079413;28;20050;-73
2023/07/20 01:59:40;;;;;;;3.30;3.00;;;;;;;-146.25;100.00;52141.13;2087882;28;20254;-73
2023/07/20 02:00:47;;;;;;;2.90;2.63;;;;;;;-146.25;100.00;52157.34;2094603;28;20103;-74
2023/07/20 02:01:49;;;;;;;3.60;3.30;;;;;;;-146.25;100.00;52128.94;2088246;28;29575;-73
2023/07/20 02:02:51;;;;;;;3.75;3.08;;;;;;;-146.25;100.00;52157.34;2079919;28;25287;-74
2023/07/20 02:03:53;;;;;;;3.97;3.33;;;;;;;-146.25;100.00;52116.78;2079943;28;20352;-73
2023/07/20 02:04:55;;;;;;;3.58;3.28;;;;;;;-146.25;100.00;52165.44;2094936;28;26405;-73
2023/07/20 02:05:59;;;;;;;3.83;3.45;;;;;;;-146.25;100.00;52169.50;2090988;28;27768;-72
2023/07/20 02:07:01;;;;;;;4.05;3.65;;;;;;;-146.25;100.00;52100.56;2087193;28;24807;-73
2023/07/20 02:08:03;;;;;;;4.15;3.70;;;;;;;-146.25;100.00;52208.03;2087442;28;20175;-73
2023/07/20 02:09:05;;;;;;;3.67;3.28;;;;;;;-146.25;100.00;52161.38;2086858;28;29362;-73
2023/07/20 02:10:07;;;;;;;3.97;3.58;;;;;;;-146.25;100.00;52153.28;2078916;28;21597;-73
2023/07/20 02:11:09;;;;;;;4.10;3.72;;;;;;;-146.25;100.00;52161.38;2071375;28;20104;-74
2023/07/20 02:12:14;;;;;;;4.10;3.70;;;;;;;-146.25;100.00;52157.34;2078540;28;20183;-74
2023/07/20 02:13:20;;;;;;;3.78;3.50;;;;;;;-146.25;100.00;52167.47;2077487;28;20119;-73
2023/07/20 02:14:22;;;;;;;5.72;3.88;;;;;;;-146.25;100.00;52122.88;2078337;28;24709;-73
2023/07/20 02:15:24;;;;;;;4.05;3.65;;;;;;;-146.25;100.00;52149.22;2078507;28;33546;-73
2023/07/20 02:16:26;;;;;;;4.72;4.32;;;;;;;-146.25;100.00;52151.25;2096016;28;20083;-73
2023/07/20 02:17:31;;;;;;;4.72;4.18;;;;;;;-146.25;100.00;52169.50;2095153;28;20802;-73
2023/07/20 02:18:33;;;;;;;4.80;3.90;;;;;;;-146.25;100.00;52137.06;2078797;28;32863;-73
2023/07/20 02:19:35;;;;;;;5.03;4.10;;;;;;;-146.25;100.00;52133.00;2080471;28;20034;-74
2023/07/20 02:20:40;;;;;;;4.63;4.22;;;;;;;-146.25;100.00;52177.59;2079317;28;20041;-73
2023/07/20 02:21:42;;;;;;;4.68;4.18;;;;;;;-146.25;100.00;52133.00;2079909;28;20046;-73
2023/07/20 02:22:47;;;;;;;4.80;4.35;;;;;;;-146.25;100.00;52135.03;2086396;28;25868;-73
2023/07/20 02:23:49;;;;;;;5.05;4.65;;;;;;;-146.25;100.00;52175.56;2086820;28;32057;-73
2023/07/20 02:24:51;;;;;;;5.40;4.90;;;;;;;-146.25;100.00;52157.34;2087196;28;31529;-73
2023/07/20 02:25:54;;;;;;;4.35;4.03;;;;;;;-146.25;100.00;52183.69;2087198;28;27595;-73
2023/07/20 02:26:56;;;;;;;4.80;4.25;;;;;;;-146.25;100.00;52147.19;2095919;28;20048;-73
2023/07/20 02:28:02;;;;;;;5.43;4.93;;;;;;;-146.25;100.00;52133.00;2095193;28;20144;-73
2023/07/20 02:29:04;;;;;;;6.95;4.85;;;;;;;-146.25;100.00;52141.13;2070566;28;30990;-73
2023/07/20 02:30:09;;;;;;;4.97;4.57;;;;;;;-146.25;100.00;52141.13;2071514;28;31381;-73
2023/07/20 02:31:10;;;;;;;5.57;5.07;;;;;;;-146.25;100.00;52141.13;2080011;28;22159;-73
2023/07/20 02:32:12;;;;;;;5.93;5.43;;;;;;;-146.25;100.00;52145.16;2078278;28;22714;-73
2023/07/20 02:33:16;;;;;;;6.22;4.95;;;;;;;-146.25;100.00;52112.72;2080916;28;35679;-73
2023/07/20 02:34:18;;;;;;;5.85;5.25;;;;;;;-146.25;100.00;52145.16;2079396;28;37009;-73
2023/07/20 02:35:23;;;;;;;7.28;5.07;;;;;;;-146.25;100.00;52124.91;2079752;28;21033;-73
2023/07/20 02:36:25;;;;;;;5.47;4.93;;;;;;;-146.25;100.00;52153.28;2079158;28;20042;-73
2023/07/20 02:37:29;;;;;;;6.30;5.72;;;;;;;-146.25;100.00;52179.63;2081132;28;24018;-73
2023/07/20 02:38:30;;;;;;;6.53;5.30;;;;;;;-146.25;100.00;52167.47;2087100;28;20115;-73
2023/07/20 02:39:32;;;;;;;7.85;6.35;;;;;;;-146.25;100.00;52165.44;2088205;28;33385;-73
2023/07/20 02:40:34;;;;;;;5.88;5.38;;;;;;;-146.25;100.00;52133.00;2088743;28;23919;-73
2023/07/20 02:41:36;;;;;;;5.88;5.38;;;;;;;-146.25;100.00;52163.41;2082733;28;25574;-73
2023/07/20 02:42:37;;;;;;;5.72;5.18;;;;;;;-146.25;100.00;52137.06;2080942;28;31577;-73
2023/07/20 02:43:39;;;;;;;5.78;5.28;;;;;;;-146.25;100.00;52126.91;2088506;28;22011;-73
2023/07/20 02:44:41;;;;;;;5.63;5.13;;;;;;;-146.25;100.00;52124.91;2088577;28;33208;-73
2023/07/20 02:45:43;;;;;;;7.85;5.03;;;;;;;-146.25;100.00;52163.41;2080395;28;26427;-73
2023/07/20 02:46:45;;;;;;;6.10;5.60;;;;;;;-146.25;100.00;52147.19;2079941;28;30234;-73
2023/07/20 02:47:47;;;;;;;6.40;5.80;;;;;;;-146.25;100.00;52169.50;2071547;28;35307;-73
2023/07/20 02:48:48;;;;;;;5.35;4.80;;;;;;;-146.25;100.00;52118.81;2080162;28;27531;-73
2023/07/20 02:49:50;;;;;;;6.80;5.50;;;;;;;-146.25;100.00;52173.56;2081875;28;20394;-74
2023/07/20 02:50:53;;;;;;;6.05;5.47;;;;;;;-146.25;100.00;52157.34;2080776;28;21061;-74
2023/07/20 02:51:54;;;;;;;5.03;4.60;;;;;;;-146.25;100.00;52112.72;2080497;28;20066;-73
2023/07/20 02:52:56;;;;;;;6.07;5.57;;;;;;;-146.25;100.00;52161.38;2079811;28;20885;-73
2023/07/20 02:53:59;;;;;;;6.32;5.32;;;;;;;-146.25;100.00;52137.06;2064248;28;21033;-73
2023/07/20 02:55:01;;;;;;;6.38;5.25;;;;;;;-146.25;100.00;52157.34;2073066;28;20030;-73
2023/07/20 02:56:03;;;;;;;5.80;5.30;;;;;;;-146.25;100.00;52169.50;2088446;28;27451;-73
2023/07/20 02:57:05;;;;;;;5.75;5.25;;;;;;;-146.25;100.00;52139.09;2088722;28;20957;-74
2023/07/20 02:58:07;;;;;;;6.43;5.82;;;;;;;-146.25;100.00;52165.44;2080711;28;32798;-74
2023/07/20 02:59:08;;;;;;;6.60;5.82;;;;;;;-146.25;100.00;52169.50;2081037;28;20958;-73
2023/07/20 03:00:11;;;;;;;6.85;6.15;;;;;;;-146.25;100.00;52161.38;2080764;28;21560;-73
2023/07/20 03:01:15;;;;;;;6.43;5.82;;;;;;;-146.25;100.00;52112.72;2088119;28;33772;-73
2023/07/20 03:02:16;;;;;;;6.53;5.60;;;;;;;-146.25;100.00;52120.84;2096843;28;28147;-74
2023/07/20 03:03:18;;;;;;;6.22;5.63;;;;;;;-146.25;100.00;52177.59;2088898;28;20119;-73
2023/07/20 03:04:20;;;;;;;5.40;4.90;;;;;;;-146.25;100.00;52137.06;2089230;28;20041;-74
2023/07/20 03:05:27;;;;;;;5.68;5.18;;;;;;;-146.25;100.00;52135.03;2097131;28;20152;-74
2023/07/20 03:06:29;;;;;;;6.55;5.95;;;;;;;-146.25;100.00;52171.53;2085738;28;29588;-74
2023/07/20 03:07:31;;;;;;;5.13;4.57;;;;;;;-146.25;100.00;52137.06;2088752;28;20924;-73
2023/07/20 03:08:35;;;;;;;6.93;6.22;;;;;;;-146.25;100.00;52165.44;2088234;28;20053;-73
2023/07/20 03:09:37;;;;;;;6.07;5.50;;;;;;;-146.25;100.00;52163.41;2071946;28;31199;-73
2023/07/20 03:10:40;;;;;;;6.30;5.70;;;;;;;-146.25;100.00;52133.00;2080729;28;20105;-73
2023/07/20 03:11:42;;;;;;;5.80;5.18;;;;;;;-146.25;100.00;52171.53;2088102;28;28688;-73
2023/07/20 03:12:48;;;;;;;6.63;5.93;;;;;;;-146.25;100.00;52151.25;2072860;28;20140;-73
2023/07/20 03:13:50;;;;;;;6.78;6.07;;;;;;;-146.25;100.00;52133.00;2089061;28;20037;-73
2023/07/20 03:14:52;;;;;;;8.43;5.72;;;;;;;-146.25;100.00;52124.91;2087761;28;20505;-73
2023/07/20 03:15:56;;;;;;;7.28;6.15;;;;;;;-146.25;100.00;52116.78;2088619;28;20160;-74
2023/07/20 03:16:58;;;;;;;6.93;6.25;;;;;;;-146.25;100.00;52165.44;2088009;28;20428;-73
2023/07/20 03:18:00;;;;;;;6.10;5.50;;;;;;;-146.25;100.00;52163.41;2072519;28;33507;-73
2023/07/20 03:19:03;;;;;;;6.45;5.68;;;;;;;-146.25;100.00;52173.56;2080271;28;20923;-73
2023/07/20 03:20:09;;;;;;;7.55;5.88;;;;;;;-146.25;100.00;52195.84;2080379;28;20046;-73
2023/07/20 03:21:14;;;;;;;5.63;5.13;;;;;;;-146.25;100.00;52177.59;2088725;28;20030;-73
2023/07/20 03:22:18;;;;;;;6.45;5.72;;;;;;;-146.25;100.00;52141.13;2088023;28;20053;-74
2023/07/20 03:23:20;;;;;;;6.18;5.63;;;;;;;-146.25;100.00;52185.72;2079931;28;20045;-73
2023/07/20 03:24:24;;;;;;;6.25;5.65;;;;;;;-146.25;100.00;52195.84;2073268;28;20161;-73
2023/07/20 03:25:26;;;;;;;7.53;6.28;;;;;;;-146.25;100.00;52169.50;2087449;28;20041;-73
2023/07/20 03:26:32;;;;;;;6.82;6.00;;;;;;;-146.25;100.00;52169.50;2087905;28;29714;-74
2023/07/20 03:27:34;;;;;;;6.68;6.07;;;;;;;-146.25;100.00;52177.59;2072865;28;20046;-73
2023/07/20 03:28:38;;;;;;;8.40;5.40;;;;;;;-146.25;100.00;52191.81;2088760;28;20038;-74
2023/07/20 03:29:40;;;;;;;5.57;5.07;;;;;;;-146.25;100.00;52167.47;2088605;28;20867;-74
2023/07/20 03:30:42;;;;;;;6.47;5.88;;;;;;;-146.25;100.00;52175.56;2080401;28;20949;-73
2023/07/20 03:31:46;;;;;;;6.68;6.03;;;;;;;-146.25;100.00;52157.34;2080192;28;20077;-73
2023/07/20 03:32:49;;;;;;;6.47;5.88;;;;;;;-146.25;100.00;52157.34;2088528;28;20041;-74
2023/07/20 03:33:52;;;;;;;8.75;6.28;;;;;;;-146.25;100.00;52169.50;2096494;28;20877;-74
2023/07/20 03:34:53;;;;;;;5.97;5.35;;;;;;;-146.25;100.00;52163.41;2088839;28;20499;-74
2023/07/20 03:35:56;;;;;;;7.10;5.43;;;;;;;-146.25;100.00;52137.06;2087710;28;20054;-74
2023/07/20 03:36:59;;;;;;;6.05;5.45;;;;;;;-146.25;100.00;52153.28;2087459;28;29277;-73
2023/07/20 03:38:04;;;;;;;6.28;5.28;;;;;;;-146.25;100.00;52208.03;2090622;28;20985;-73
2023/07/20 03:39:06;;;;;;;5.90;5.28;;;;;;;-146.25;100.00;52175.56;2088701;28;20048;-73
2023/07/20 03:40:08;;;;;;;5.97;5.40;;;;;;;-146.25;100.00;52161.38;2079635;28;29394;-73
2023/07/20 03:41:11;;;;;;;6.57;5.50;;;;;;;-146.25;100.00;52165.44;2088136;28;28377;-73
2023/07/20 03:42:13;;;;;;;6.68;5.97;;;;;;;-146.25;100.00;52173.56;2095917;28;20044;-73
2023/07/20 03:43:15;;;;;;;6.60;6.00;;;;;;;-146.25;100.00;52169.50;2079424;28;24752;-73
2023/07/20 03:44:16;;;;;;;7.00;5.68;;;;;;;-146.25;100.00;52151.25;2080707;28;31267;-74
2023/07/20 03:45:18;;;;;;;7.10;4.97;;;;;;;-146.25;100.00;52145.16;2081342;28;20956;-73
2023/07/20 03:46:21;;;;;;;5.88;5.28;;;;;;;-146.25;100.00;52185.72;2080332;28;20905;-73
2023/07/20 03:47:24;;;;;;;6.90;5.20;;;;;;;-146.25;100.00;52159.34;2079601;28;34499;-73
2023/07/20 03:48:26;;;;;;;6.10;5.50;;;;;;;-146.25;100.00;52169.50;2080280;28;20049;-73
2023/07/20 03:49:33;;;;;;;5.85;4.35;;;;;;;-146.25;100.00;52175.56;2080976;28;21002;-74
2023/07/20 03:50:37;;;;;;;5.38;4.80;;;;;;;-146.25;100.00;52165.44;2079792;28;20030;-73
2023/07/20 03:51:39;;;;;;;6.13;5.50;;;;;;;-146.25;100.00;52157.34;2088960;28;20137;-73
2023/07/20 03:52:41;;;;;;;5.68;5.18;;;;;;;-146.25;100.00;52185.72;2097213;28;20909;-73
2023/07/20 03:53:42;;;;;;;7.43;5.63;;;;;;;-146.25;100.00;52141.13;2079996;28;24229;-73
2023/07/20 03:54:44;;;;;;;6.18;5.55;;;;;;;-146.25;100.00;52165.44;2078850;28;33757;-73
2023/07/20 03:55:51;;;;;;;5.93;5.35;;;;;;;-146.25;100.00;52161.38;2086536;28;20262;-73
2023/07/20 03:56:53;;;;;;;6.07;5.57;;;;;;;-146.25;100.00;52133.00;2088251;28;20084;-73
2023/07/20 03:57:57;;;;;;;6.07;5.47;;;;;;;-146.25;100.00;52157.34;2087804;28;33697;-73
2023/07/20 03:58:59;;;;;;;6.38;4.95;;;;;;;-146.25;100.00;52163.41;2088640;28;28089;-73
2023/07/20 04:00:01;;;;;;;5.55;5.05;;;;;;;-146.25;100.00;52169.50;2088278;28;20049;-73
2023/07/20 04:01:16;;;;;;;6.32;5.70;;;;;;;-146.25;100.00;52169.50;2088413;28;20049;-72
2023/07/20 04:02:20;;;;;;;5.63;5.10;;;;;;;-146.25;100.00;52165.44;2088575;28;32498;-73
2023/07/20 04:03:24;;;;;;;9.15;6.07;;;;;;;-146.25;100.00;52218.16;2080058;28;21022;-73
2023/07/20 04:04:26;;;;;;;5.55;5.05;;;;;;;-146.25;100.00;52191.81;2080791;28;29334;-72
2023/07/20 04:05:28;;;;;;;4.85;4.45;;;;;;;-146.25;100.00;52177.59;2094320;28;24028;-73
2023/07/20 04:06:30;;;;;;;4.68;4.15;;;;;;;-146.25;100.00;52171.53;2087701;28;20959;-73
2023/07/20 04:07:34;;;;;;;4.22;3.50;;;;;;;-146.25;100.00;52149.22;2079744;28;32879;-73
2023/07/20 04:08:37;;;;;;;4.90;3.67;;;;;;;-146.25;100.00;52193.81;2087403;28;27984;-73
2023/07/20 04:09:40;;;;;;;7.32;4.00;;;;;;;-146.25;100.00;52189.78;2088367;28;20049;-73
2023/07/20 04:10:45;;;;;;;3.65;3.33;;;;;;;-146.25;100.00;52177.59;2088019;28;20077;-72
2023/07/20 04:11:47;;;;;;;4.38;2.85;;;;;;;-146.25;100.00;52208.03;2087428;28;24013;-73
2023/07/20 04:12:51;;;;;;;5.63;3.60;;;;;;;-146.25;100.00;52189.78;2071639;28;21073;-73
2023/07/20 04:13:53;;;;;;;5.55;3.17;;;;;;;-146.25;100.00;52201.94;2080758;28;20725;-73
2023/07/20 04:14:54;;;;;;;6.15;3.15;;;;;;;-146.25;100.00;52193.81;2096877;28;20037;-72
2023/07/20 04:15:56;;;;;;;4.35;3.20;;;;;;;-146.25;100.00;52193.81;2080451;28;25336;-73
2023/07/20 04:17:00;;;;;;;4.18;2.90;;;;;;;-146.25;100.00;52177.59;2096471;28;22559;-73
2023/07/20 04:18:02;;;;;;;3.83;3.47;;;;;;;-146.25;100.00;52151.25;2087488;28;20062;-73
2023/07/20 04:19:07;;;;;;;3.55;3.15;;;;;;;-146.25;100.00;52165.44;2088670;28;20049;-73
2023/07/20 04:20:09;;;;;;;4.63;3.30;;;;;;;-146.25;100.00;52199.91;2096374;28;25087;-73
2023/07/20 04:21:11;;;;;;;5.32;2.97;;;;;;;-146.25;100.00;52197.88;2096528;28;20052;-72
2023/07/20 04:22:17;;;;;;;5.18;4.05;;;;;;;-146.25;100.00;52224.25;2096329;28;20045;-72
2023/07/20 04:23:19;;;;;;;4.30;3.90;;;;;;;-146.25;100.00;52167.47;2087985;28;20041;-72
2023/07/20 04:24:21;;;;;;;4.38;3.47;;;;;;;-146.25;100.00;52193.81;2095415;28;20985;-73
2023/07/20 04:25:22;;;;;;;3.75;2.90;;;;;;;-146.25;100.00;52226.25;2096566;28;20889;-72
2023/07/20 04:26:25;;;;;;;3.35;2.20;;;;;;;-146.25;100.00;52212.06;2087907;28;20081;-72
2023/07/20 04:27:26;;;;;;;3.30;1.88;;;;;;;-146.25;100.00;52214.09;2071864;28;20061;-72
2023/07/20 04:28:30;;;;;;;4.05;1.77;;;;;;;-146.25;98.75;52214.09;2072234;28;20041;-72
2023/07/20 04:29:32;;;;;;;2.20;1.75;;;;;;;-146.25;97.23;52214.09;2088049;28;23049;-72
2023/07/20 04:30:36;;;;;;;4.53;1.38;;;;;;;-146.25;90.02;52218.16;2079539;28;20185;-72
2023/07/20 04:31:39;;;;;;;3.15;1.38;;;;;;;-146.25;88.30;52230.31;2071249;28;20050;-71
2023/07/20 04:32:44;;;;;;;3.00;1.35;;;;;;;-146.25;82.97;52228.28;2071271;28;30024;-73
2023/07/20 04:33:48;;;;;;;1.30;1.00;;;;;;;-146.25;83.85;52216.13;2088580;28;20150;-73
2023/07/20 04:34:54;;;;;;;2.63;1.10;;;;;;;-146.25;80.07;52206.00;2095974;28;20127;-73
2023/07/20 04:35:56;;;;;;;1.83;0.80;;;;;;;-146.25;77.86;52199.91;2087900;28;20042;-73
2023/07/20 04:37:02;;;;;;;1.27;1.00;;;;;;;-146.25;73.23;52185.72;2088612;28;20045;-73
2023/07/20 04:38:07;;;;;;;3.83;1.05;;;;;;;-146.25;72.27;52218.16;2079026;28;20084;-72
2023/07/20 04:39:10;;;;;;;1.80;1.00;;;;;;;-146.25;69.32;52206.00;2088518;28;20041;-73
2023/07/20 04:40:22;;;;;;;2.08;0.70;;;;;;;-146.25;69.95;52187.75;2086590;28;20081;-73
2023/07/20 04:41:25;;;;;;;4.25;0.90;;;;;;;-146.25;67.61;52187.75;2079974;28;20180;-73
2023/07/20 04:42:29;;;;;;;2.28;0.88;;;;;;;-146.25;64.29;52149.22;2078379;28;20118;-72
2023/07/20 04:43:31;;;;;;;2.95;1.08;;;;;;;-146.25;63.89;52169.50;2078551;28;20150;-72
2023/07/20 04:44:33;;;;;;;2.75;0.88;;;;;;;-146.25;60.60;52177.59;2088721;28;20048;-72
2023/07/20 04:45:35;;;;;;;2.22;0.55;;;;;;;-146.25;61.87;52208.03;2087819;28;21017;-73
2023/07/20 04:46:37;;;;;;;3.60;1.02;;;;;;;-146.25;62.20;52143.13;2087906;28;20101;-72
2023/07/20 04:47:39;;;;;;;1.65;0.80;;;;;;;-146.25;60.84;52208.03;2082213;28;20050;-72
2023/07/20 04:48:41;;;;;;;2.45;0.70;;;;;;;-146.25;57.22;52135.03;2088043;28;20049;-72
2023/07/20 04:49:43;;;;;;;3.13;0.60;;;;;;;-146.25;57.34;52159.34;2088054;28;20152;-70
2023/07/20 04:50:49;;;;;;;2.95;0.85;;;;;;;-146.25;55.27;52169.50;2079316;28;20088;-70
2023/07/20 04:51:52;;;;;;;2.30;0.70;;;;;;;-146.25;56.58;52173.56;2079960;28;20827;-70